Terminal Aerodrome Forecast
Issued by NWS

Home | Current Version | Previous Version | Text Only | Print | Product List | Glossary On
Versions: 1 2 3 4 5 6 7 8 9 10 11 12 13 14 15 16 17 18 19 20 21 22
000
FTUS44 KCRP 160500
TAFLRD
TAF
KLRD 160540Z 1606/1706 VRB03KT P6SM SCT050 BKN250
     FM161000 09005KT 5SM BR BKN010 OVC200
     FM161600 09007KT P6SM OVC030
     FM162100 10005KT P6SM VCTS BKN040CB
      TEMPO 1622/1702 3SM TSRA BKN030CB
     FM170300 13005KT P6SM SCT040=

USA.gov is the U.S. government's official web portal to all federal, state and local government web resources and services.